Time;durP1;ratioP1;P1;durP2;ratioP2;P2;SDS_P1;SDS_P2;PMS_P1;PMS_P2;Temp;Humidity;BMP_temperature;BMP_pressure;BME280_temperature;BME280_humidity;BME280_pressure;Samples;Min_cycle;Max_cycle;Signal;HPM_P1;HPM_P2
2022/12/07 00:00:49;;;;;;;;;;;15.50;66.00;;;;;;10257841;28;89992;-67
2022/12/07 00:05:51;;;;;;;;;;;15.50;66.00;;;;;;10255212;28;89094;-67
2022/12/07 00:10:53;;;;;;;;;;;15.50;66.90;;;;;;10256782;28;91065;-67
2022/12/07 00:15:55;;;;;;;;;;;15.50;65.70;;;;;;10256943;28;88569;-67
2022/12/07 00:21:01;;;;;;;;;;;15.40;65.80;;;;;;10257655;28;89454;-67
2022/12/07 00:26:03;;;;;;;;;;;15.40;66.00;;;;;;10257306;28;89921;-67
2022/12/07 00:31:07;;;;;;;;;;;15.40;66.00;;;;;;10257511;28;89977;-67
2022/12/07 00:36:10;;;;;;;;;;;15.40;66.00;;;;;;10256462;28;90003;-67
2022/12/07 00:41:13;;;;;;;;;;;15.50;65.90;;;;;;10256963;28;88219;-67
2022/12/07 00:46:16;;;;;;;;;;;15.60;66.70;;;;;;10257772;28;87422;-67
2022/12/07 00:51:19;;;;;;;;;;;15.60;65.50;;;;;;10255393;28;89656;-67
2022/12/07 00:56:21;;;;;;;;;;;15.60;65.40;;;;;;10256911;28;90007;-66
2022/12/07 01:01:24;;;;;;;;;;;15.60;65.40;;;;;;10256201;28;90538;-68
2022/12/07 01:06:26;;;;;;;;;;;15.60;65.40;;;;;;10254976;28;90013;-67
2022/12/07 01:11:28;;;;;;;;;;;15.60;65.40;;;;;;10256136;28;89069;-67
2022/12/07 01:16:31;;;;;;;;;;;15.50;65.40;;;;;;10255698;28;89777;-68
2022/12/07 01:21:35;;;;;;;;;;;15.50;65.50;;;;;;10255417;28;88406;-67
2022/12/07 01:26:37;;;;;;;;;;;15.50;65.50;;;;;;10256265;28;89375;-67
2022/12/07 01:31:39;;;;;;;;;;;15.50;65.50;;;;;;10253480;28;89059;-67
2022/12/07 01:36:41;;;;;;;;;;;15.50;65.50;;;;;;10255105;28;89447;-67
2022/12/07 01:41:43;;;;;;;;;;;15.40;65.40;;;;;;10255538;28;88474;-67
2022/12/07 01:46:46;;;;;;;;;;;15.40;65.40;;;;;;10254862;28;88956;-67
2022/12/07 01:51:48;;;;;;;;;;;15.40;65.40;;;;;;10254178;28;89950;-67
2022/12/07 01:56:51;;;;;;;;;;;15.40;65.50;;;;;;10256241;28;88447;-67
2022/12/07 02:07:08;;;;;;;;;;;15.30;65.50;;;;;;10333392;28;88659;-66
2022/12/07 02:12:09;;;;;;;;;;;15.30;65.40;;;;;;10317419;28;89070;-66
2022/12/07 02:17:20;;;;;;;;;;;15.40;65.40;;;;;;10335411;28;89211;-65
2022/12/07 02:22:22;;;;;;;;;;;15.50;65.30;;;;;;10331321;28;94524;-65
2022/12/07 02:27:36;;;;;;;;;;;15.50;65.10;;;;;;10335311;28;93764;-66
2022/12/07 02:32:44;;;;;;;;;;;15.50;65.00;;;;;;10321076;28;95036;-66
2022/12/07 02:37:59;;;;;;;;;;;15.50;65.10;;;;;;10337493;28;94445;-66
2022/12/07 02:43:07;;;;;;;;;;;15.40;65.00;;;;;;10333934;28;96756;-66
2022/12/07 02:48:09;;;;;;;;;;;15.50;65.10;;;;;;10336122;28;94235;-66
2022/12/07 02:53:30;;;;;;;;;;;15.40;65.10;;;;;;10336365;28;93469;-66
2022/12/07 02:58:41;;;;;;;;;;;15.40;65.20;;;;;;10337233;28;93067;-66
2022/12/07 03:03:47;;;;;;;;;;;15.40;65.20;;;;;;10318803;28;93447;-66
2022/12/07 03:08:55;;;;;;;;;;;15.40;65.20;;;;;;10317985;28;92568;-67
2022/12/07 03:14:03;;;;;;;;;;;15.40;65.10;;;;;;10335782;28;93465;-67
2022/12/07 03:19:10;;;;;;;;;;;15.30;65.10;;;;;;10336692;28;92776;-67
2022/12/07 03:24:15;;;;;;;;;;;15.30;65.10;;;;;;10318450;28;94286;-67
2022/12/07 03:29:19;;;;;;;;;;;15.30;65.10;;;;;;10335963;28;94901;-66
2022/12/07 03:34:23;;;;;;;;;;;15.20;65.10;;;;;;10333445;28;95830;-66
2022/12/07 03:39:43;;;;;;;;;;;15.30;65.30;;;;;;10335915;28;94549;-67
2022/12/07 03:44:45;;;;;;;;;;;15.30;65.20;;;;;;10335874;28;94446;-67
2022/12/07 03:50:13;;;;;;;;;;;15.40;65.00;;;;;;10335394;28;93495;-67
2022/12/07 03:55:17;;;;;;;;;;;15.40;64.90;;;;;;10304431;28;93562;-67
2022/12/07 04:00:19;;;;;;;;;;;15.50;64.70;;;;;;10335378;28;93065;-67
2022/12/07 04:05:23;;;;;;;;;;;15.40;64.50;;;;;;10335327;28;94451;-67
2022/12/07 04:10:24;;;;;;;;;;;15.40;64.60;;;;;;10318524;28;95003;-67
2022/12/07 04:15:26;;;;;;;;;;;15.50;64.70;;;;;;10316898;28;93856;-67
2022/12/07 04:20:28;;;;;;;;;;;15.40;64.70;;;;;;10315345;28;94509;-67
2022/12/07 04:25:30;;;;;;;;;;;15.40;64.70;;;;;;10332277;28;96839;-66
2022/12/07 04:30:31;;;;;;;;;;;15.30;64.60;;;;;;10333673;28;94061;-67
2022/12/07 04:35:33;;;;;;;;;;;15.30;64.60;;;;;;10334026;28;93308;-68
2022/12/07 04:40:35;;;;;;;;;;;15.30;64.50;;;;;;10333963;28;94437;-66
2022/12/07 04:45:36;;;;;;;;;;;15.30;64.60;;;;;;10316458;28;94473;-67
2022/12/07 04:50:38;;;;;;;;;;;15.20;64.60;;;;;;10333354;28;93473;-67
2022/12/07 04:55:46;;;;;;;;;;;15.20;64.60;;;;;;10316118;28;94416;-66
2022/12/07 05:00:48;;;;;;;;;;;15.20;64.60;;;;;;10316428;28;93666;-66
2022/12/07 05:05:50;;;;;;;;;;;15.20;64.90;;;;;;10332704;28;94573;-67
2022/12/07 05:10:51;;;;;;;;;;;15.20;64.80;;;;;;10315726;28;94482;-67
2022/12/07 05:15:53;;;;;;;;;;;15.30;64.60;;;;;;10330478;28;96816;-68
2022/12/07 05:20:55;;;;;;;;;;;15.40;64.50;;;;;;10331450;28;94006;-67
2022/12/07 05:25:57;;;;;;;;;;;15.40;64.40;;;;;;10332372;28;94485;-67
2022/12/07 05:30:58;;;;;;;;;;;15.40;64.30;;;;;;10333285;28;94378;-67
2022/12/07 05:36:05;;;;;;;;;;;15.40;64.30;;;;;;10332476;28;94489;-67
2022/12/07 05:41:07;;;;;;;;;;;15.40;64.30;;;;;;10331378;28;93948;-66
2022/12/07 05:46:08;;;;;;;;;;;15.40;64.30;;;;;;10331713;28;94426;-67
2022/12/07 05:51:10;;;;;;;;;;;15.40;64.30;;;;;;10332824;28;93207;-66
2022/12/07 05:56:12;;;;;;;;;;;15.40;64.30;;;;;;10331405;28;93526;-67
2022/12/07 06:01:14;;;;;;;;;;;15.40;64.10;;;;;;10312513;28;93659;-67
2022/12/07 06:06:15;;;;;;;;;;;15.40;64.10;;;;;;10310681;28;96859;-67
2022/12/07 06:16:38;;;;;;;;;;;15.50;63.90;;;;;;10330348;28;94739;-67
2022/12/07 06:21:40;;;;;;;;;;;15.60;63.80;;;;;;10330048;28;93501;-67
2022/12/07 06:26:42;;;;;;;;;;;15.70;63.60;;;;;;10330143;28;93552;-66
2022/12/07 06:31:44;;;;;;;;;;;15.90;63.40;;;;;;10312427;28;93580;-67
2022/12/07 06:36:50;;;;;;;;;;;16.10;63.20;;;;;;10330415;28;93927;-67
2022/12/07 06:41:53;;;;;;;;;;;16.20;63.10;;;;;;10313794;28;92698;-68
2022/12/07 06:46:56;;;;;;;;;;;16.30;62.90;;;;;;10313305;28;93622;-67
2022/12/07 06:52:18;;;;;;;;;;;16.20;63.10;;;;;;10330328;28;94020;-68
2022/12/07 06:57:20;;;;;;;;;;;16.20;63.10;;;;;;10326829;28;96670;-68
2022/12/07 07:02:21;;;;;;;;;;;16.10;63.20;;;;;;10328508;28;93500;-67
2022/12/07 07:07:23;;;;;;;;;;;16.10;63.20;;;;;;10329119;28;93566;-67
2022/12/07 07:12:25;;;;;;;;;;;16.30;63.00;;;;;;10331603;28;93470;-67
2022/12/07 07:17:27;;;;;;;;;;;16.30;62.80;;;;;;10336561;28;93444;-67
2022/12/07 07:22:28;;;;;;;;;;;16.30;62.70;;;;;;10336273;28;93399;-68
2022/12/07 07:27:30;;;;;;;;;;;16.30;62.70;;;;;;10336788;28;94466;-68
2022/12/07 07:32:32;;;;;;;;;;;16.20;62.90;;;;;;10336562;28;92907;-68
2022/12/07 07:37:33;;;;;;;;;;;16.20;63.00;;;;;;10336050;28;93517;-68
2022/12/07 07:42:35;;;;;;;;;;;16.10;63.10;;;;;;10335088;28;93797;-68
2022/12/07 07:47:37;;;;;;;;;;;16.00;63.30;;;;;;10333347;28;96820;-67
2022/12/07 07:52:39;;;;;;;;;;;16.00;63.60;;;;;;10335060;28;94771;-67
2022/12/07 07:57:40;;;;;;;;;;;15.80;63.40;;;;;;10335270;28;94466;-67
2022/12/07 08:02:45;;;;;;;;;;;15.80;63.60;;;;;;10335648;28;93457;-67
2022/12/07 08:07:47;;;;;;;;;;;15.70;63.80;;;;;;10334722;28;93248;-68
2022/12/07 08:18:09;;;;;;;;;;;15.60;64.30;;;;;;10334918;28;93713;-68
2022/12/07 08:23:11;;;;;;;;;;;15.60;64.40;;;;;;10334909;28;92706;-68
2022/12/07 08:28:13;;;;;;;;;;;15.60;64.40;;;;;;10334593;28;94411;-68
2022/12/07 08:33:15;;;;;;;;;;;15.60;64.40;;;;;;10316367;28;93416;-68
2022/12/07 08:38:16;;;;;;;;;;;15.50;64.40;;;;;;10313624;28;95932;-68
2022/12/07 08:43:18;;;;;;;;;;;15.40;64.40;;;;;;10316147;28;93608;-68
2022/12/07 08:48:24;;;;;;;;;;;15.40;64.50;;;;;;10334851;28;92547;-68
2022/12/07 08:53:25;;;;;;;;;;;15.40;64.50;;;;;;10315270;28;93443;-68
2022/12/07 08:58:27;;;;;;;;;;;15.40;64.50;;;;;;10333608;28;94343;-68
2022/12/07 09:03:29;;;;;;;;;;;15.30;64.40;;;;;;10332816;28;93474;-68
2022/12/07 09:08:34;;;;;;;;;;;15.30;64.70;;;;;;10333002;28;93459;-68
2022/12/07 09:13:36;;;;;;;;;;;15.30;64.50;;;;;;10333869;28;92716;-68
2022/12/07 09:18:38;;;;;;;;;;;15.40;64.40;;;;;;10332445;28;93923;-68
2022/12/07 09:23:41;;;;;;;;;;;15.50;64.40;;;;;;10333388;28;94446;-69
2022/12/07 09:28:42;;;;;;;;;;;15.50;64.20;;;;;;10330145;28;96070;-68
2022/12/07 09:33:44;;;;;;;;;;;15.50;64.20;;;;;;10333138;28;94743;-68
2022/12/07 09:38:46;;;;;;;;;;;15.50;64.30;;;;;;10314375;28;92507;-68
2022/12/07 09:43:48;;;;;;;;;;;15.40;64.20;;;;;;10314256;28;94033;-68
2022/12/07 09:48:50;;;;;;;;;;;15.40;64.20;;;;;;10332088;28;92964;-68
2022/12/07 09:53:53;;;;;;;;;;;15.40;64.30;;;;;;10331342;28;94500;-68
2022/12/07 09:59:00;;;;;;;;;;;15.40;64.30;;;;;;10331961;28;93516;-67
2022/12/07 10:04:09;;;;;;;;;;;15.40;64.40;;;;;;10331164;28;91901;-68
2022/12/07 10:09:11;;;;;;;;;;;15.30;64.40;;;;;;10332095;28;94430;-68
2022/12/07 10:14:13;;;;;;;;;;;15.30;64.40;;;;;;10331094;28;94647;-68
2022/12/07 10:19:26;;;;;;;;;;;15.30;64.70;;;;;;10328585;28;96180;-67
2022/12/07 10:24:27;;;;;;;;;;;15.30;64.70;;;;;;10330607;28;93811;-68
2022/12/07 10:29:29;;;;;;;;;;;15.30;64.80;;;;;;10330064;28;93966;-68
2022/12/07 10:34:36;;;;;;;;;;;15.20;64.80;;;;;;10331745;28;93487;-68
2022/12/07 10:39:48;;;;;;;;;;;15.20;64.80;;;;;;10313972;28;94283;-68
2022/12/07 10:45:06;;;;;;;;;;;15.20;64.90;;;;;;10329884;28;93783;-68
2022/12/07 10:50:11;;;;;;;;;;;15.30;64.90;;;;;;10336124;28;94489;-68
2022/12/07 10:55:31;;;;;;;;;;;15.30;64.80;;;;;;10338023;28;94613;-68
2022/12/07 11:00:40;;;;;;;;;;;15.30;64.70;;;;;;10335562;28;93461;-68
2022/12/07 11:05:42;;;;;;;;;;;15.30;64.80;;;;;;10336622;28;93502;-68
2022/12/07 11:10:48;;;;;;;;;;;15.30;64.70;;;;;;10315860;28;96481;-68
2022/12/07 11:15:50;;;;;;;;;;;15.30;64.70;;;;;;10337074;28;94523;-68
2022/12/07 11:21:06;;;;;;;;;;;15.30;64.80;;;;;;10336478;28;93609;-67
2022/12/07 11:26:31;;;;;;;;;;;15.30;64.80;;;;;;10336378;28;93450;-68
2022/12/07 11:31:49;;;;;;;;;;;15.30;64.80;;;;;;10336195;28;93876;-68
2022/12/07 11:36:55;;;;;;;;;;;15.30;64.80;;;;;;10336173;28;94491;-67
2022/12/07 11:42:01;;;;;;;;;;;15.20;64.90;;;;;;10336163;28;94327;-67
2022/12/07 11:47:22;;;;;;;;;;;15.20;65.00;;;;;;10336117;28;93778;-68
2022/12/07 11:52:30;;;;;;;;;;;15.20;65.00;;;;;;10335443;28;94935;-69
2022/12/07 11:57:31;;;;;;;;;;;15.20;65.10;;;;;;10316711;28;94127;-69
2022/12/07 12:02:38;;;;;;;;;;;15.20;65.10;;;;;;10332182;28;96803;-69
2022/12/07 12:07:42;;;;;;;;;;;15.20;65.10;;;;;;10316715;28;94477;-69
2022/12/07 12:13:30;;;;;;;;;;;15.20;65.10;;;;;;10334379;28;94373;-67
2022/12/07 12:19:02;;;;;;;;;;;15.20;65.00;;;;;;10334239;28;92843;-67
2022/12/07 12:24:16;;;;;;;;;;;15.30;65.10;;;;;;10334118;28;94615;-68
2022/12/07 12:29:26;;;;;;;;;;;15.30;65.00;;;;;;10316707;28;93435;-69
2022/12/07 12:34:33;;;;;;;;;;;15.30;65.10;;;;;;10334684;28;94542;-68
2022/12/07 12:39:34;;;;;;;;;;;15.30;65.20;;;;;;10334968;28;93280;-68
2022/12/07 12:44:36;;;;;;;;;;;15.30;65.20;;;;;;10333287;28;93411;-68
2022/12/07 12:49:40;;;;;;;;;;;15.30;65.20;;;;;;10334151;28;94497;-68
2022/12/07 12:55:00;;;;;;;;;;;15.30;65.20;;;;;;10312292;28;96237;-68
2022/12/07 13:00:16;;;;;;;;;;;15.20;65.20;;;;;;10333319;28;95369;-68
2022/12/07 13:05:20;;;;;;;;;;;15.20;65.30;;;;;;10332613;28;94747;-68
2022/12/07 13:10:28;;;;;;;;;;;15.10;65.20;;;;;;10331735;28;93461;-68
2022/12/07 13:15:33;;;;;;;;;;;15.20;65.30;;;;;;10332253;28;93496;-68
2022/12/07 13:20:43;;;;;;;;;;;15.10;65.40;;;;;;10333420;28;94598;-68
2022/12/07 13:25:51;;;;;;;;;;;15.10;65.40;;;;;;10332025;28;93471;-68
2022/12/07 13:31:14;;;;;;;;;;;15.20;65.40;;;;;;10314080;28;93619;-68
2022/12/07 13:36:23;;;;;;;;;;;15.20;65.30;;;;;;10331885;28;94569;-68
2022/12/07 13:41:26;;;;;;;;;;;15.30;65.10;;;;;;10331701;28;94011;-68
2022/12/07 13:46:47;;;;;;;;;;;15.30;65.00;;;;;;10311093;28;95844;-69
2022/12/07 13:51:49;;;;;;;;;;;15.30;64.80;;;;;;10314131;28;93996;-69
2022/12/07 13:56:52;;;;;;;;;;;15.30;64.80;;;;;;10331292;28;93577;-68
2022/12/07 14:01:55;;;;;;;;;;;15.30;65.70;;;;;;10329971;28;114872;-68
2022/12/07 14:06:57;;;;;;;;;;;15.30;64.70;;;;;;10312407;28;93389;-68
2022/12/07 14:12:05;;;;;;;;;;;15.30;64.80;;;;;;10330431;28;94325;-68
2022/12/07 14:17:22;;;;;;;;;;;15.30;64.80;;;;;;10312892;28;93470;-68
2022/12/07 14:22:25;;;;;;;;;;;15.20;64.70;;;;;;10330696;28;92234;-68
2022/12/07 14:27:33;;;;;;;;;;;15.20;64.60;;;;;;10331428;28;93851;-68
2022/12/07 14:32:35;;;;;;;;;;;15.20;64.80;;;;;;10330059;28;94605;-68
2022/12/07 14:37:37;;;;;;;;;;;15.20;64.80;;;;;;10328418;28;96908;-68
2022/12/07 14:42:39;;;;;;;;;;;15.20;64.80;;;;;;10328955;28;93751;-68
2022/12/07 14:47:41;;;;;;;;;;;15.10;64.80;;;;;;10331705;28;95900;-69
2022/12/07 14:53:07;;;;;;;;;;;15.10;64.90;;;;;;10330028;28;93138;-68
2022/12/07 14:58:24;;;;;;;;;;;15.10;65.00;;;;;;10329367;28;93427;-68
2022/12/07 15:03:26;;;;;;;;;;;15.10;64.80;;;;;;10329029;28;93421;-68
2022/12/07 15:08:28;;;;;;;;;;;15.10;64.70;;;;;;10329299;28;93622;-67
2022/12/07 15:18:50;;;;;;;;;;;15.20;64.70;;;;;;10328639;28;92915;-68
2022/12/07 15:24:12;;;;;;;;;;;15.10;64.70;;;;;;10330796;28;95640;-68
2022/12/07 15:29:15;;;;;;;;;;;15.10;64.70;;;;;;10308927;28;96903;-68
2022/12/07 15:34:25;;;;;;;;;;;15.10;64.70;;;;;;10332833;28;94442;-68
2022/12/07 15:39:26;;;;;;;;;;;15.10;64.60;;;;;;10317621;28;94496;-67
2022/12/07 15:49:48;;;;;;;;;;;15.20;64.60;;;;;;10334836;28;93405;-68
2022/12/07 15:54:51;;;;;;;;;;;15.20;64.50;;;;;;10335655;28;93392;-68
2022/12/07 15:59:53;;;;;;;;;;;15.20;64.50;;;;;;10336776;28;93428;-68
2022/12/07 16:04:55;;;;;;;;;;;15.20;64.80;;;;;;10336765;28;92388;-69
2022/12/07 16:09:57;;;;;;;;;;;15.20;65.00;;;;;;10336441;28;94410;-68
2022/12/07 16:14:58;;;;;;;;;;;15.50;64.60;;;;;;10338197;28;92646;-69
2022/12/07 16:20:01;;;;;;;;;;;15.80;64.10;;;;;;10312900;28;95841;-66
2022/12/07 16:25:02;;;;;;;;;;;16.20;63.80;;;;;;10327754;28;93370;-69
2022/12/07 16:30:05;;;;;;;;;;;16.50;63.40;;;;;;10327034;28;94272;-66
2022/12/07 16:35:07;;;;;;;;;;;16.80;62.90;;;;;;10326601;28;94352;-65
2022/12/07 16:40:10;;;;;;;;;;;16.90;62.30;;;;;;10326490;28;93352;-70
2022/12/07 16:45:11;;;;;;;;;;;17.00;62.10;;;;;;10323989;28;94443;-68
2022/12/07 16:50:20;;;;;;;;;;;17.10;61.80;;;;;;10315775;28;94053;-68
2022/12/07 16:55:21;;;;;;;;;;;17.20;61.70;;;;;;10292819;28;91819;-69
2022/12/07 17:00:23;;;;;;;;;;;17.20;61.80;;;;;;10292082;28;92799;-69
2022/12/07 17:05:26;;;;;;;;;;;17.30;62.10;;;;;;10290940;28;93619;-69
2022/12/07 17:10:28;;;;;;;;;;;17.40;62.10;;;;;;10286970;28;96124;-69
2022/12/07 17:15:30;;;;;;;;;;;17.50;62.10;;;;;;10272510;28;94139;-68
2022/12/07 17:20:32;;;;;;;;;;;17.60;62.00;;;;;;10288893;28;94389;-66
2022/12/07 17:25:34;;;;;;;;;;;17.60;62.10;;;;;;10318453;28;94415;-66
2022/12/07 17:30:35;;;;;;;;;;;17.60;63.20;;;;;;10312679;28;94415;-66
2022/12/07 17:35:37;;;;;;;;;;;17.50;62.80;;;;;;10331931;28;93234;-67
2022/12/07 17:40:39;;;;;;;;;;;17.50;62.70;;;;;;10330350;28;93595;-66
2022/12/07 17:45:40;;;;;;;;;;;17.50;62.70;;;;;;10313815;28;93738;-66
2022/12/07 17:56:02;;;;;;;;;;;17.50;62.70;;;;;;10330278;28;94039;-67
2022/12/07 18:01:24;;;;;;;;;;;17.50;62.60;;;;;;10327401;28;96094;-67
2022/12/07 18:06:33;;;;;;;;;;;17.50;62.60;;;;;;10330735;28;96323;-66
2022/12/07 18:11:35;;;;;;;;;;;17.50;62.50;;;;;;10330222;28;94525;-71
2022/12/07 18:16:37;;;;;;;;;;;17.60;62.80;;;;;;10330962;28;93198;-73
2022/12/07 18:21:39;;;;;;;;;;;17.70;62.60;;;;;;10330062;28;94690;-73
2022/12/07 18:26:42;;;;;;;;;;;17.90;62.50;;;;;;10330464;28;93466;-73
2022/12/07 18:31:46;;;;;;;;;;;18.00;62.30;;;;;;10296760;28;93483;-72
2022/12/07 18:36:52;;;;;;;;;;;18.00;62.10;;;;;;10330717;28;93601;-72
2022/12/07 18:41:53;;;;;;;;;;;18.00;62.20;;;;;;10312300;28;93597;-72
2022/12/07 18:46:55;;;;;;;;;;;17.80;62.10;;;;;;10330457;28;93308;-73
2022/12/07 18:51:57;;;;;;;;;;;17.80;62.40;;;;;;10327256;28;96419;-74
2022/12/07 18:56:58;;;;;;;;;;;17.70;62.30;;;;;;10331148;28;94581;-78
2022/12/07 19:02:00;;;;;;;;;;;17.70;62.20;;;;;;10312517;28;94795;-75
2022/12/07 19:07:02;;;;;;;;;;;17.70;62.30;;;;;;10312341;28;94477;-74
2022/12/07 19:12:04;;;;;;;;;;;17.80;62.10;;;;;;10337662;28;93981;-75
2022/12/07 19:17:11;;;;;;;;;;;18.00;62.10;;;;;;10337655;28;92897;-75
2022/12/07 19:22:14;;;;;;;;;;;18.10;61.80;;;;;;10337845;28;92493;-75
2022/12/07 19:27:16;;;;;;;;;;;18.00;61.50;;;;;;10339032;28;92505;-75
2022/12/07 19:32:18;;;;;;;;;;;17.90;61.50;;;;;;10338070;28;93416;-75
2022/12/07 19:37:20;;;;;;;;;;;17.80;61.60;;;;;;10334775;28;94176;-74
2022/12/07 19:42:21;;;;;;;;;;;17.80;61.80;;;;;;10322643;28;95910;-73
2022/12/07 19:47:23;;;;;;;;;;;17.70;61.90;;;;;;10333322;28;93469;-73
2022/12/07 19:52:25;;;;;;;;;;;17.70;61.90;;;;;;10336328;28;93465;-73
2022/12/07 19:57:27;;;;;;;;;;;17.80;62.00;;;;;;10336123;28;93761;-73
2022/12/07 20:02:28;;;;;;;;;;;17.90;62.00;;;;;;10317285;28;93661;-73
2022/12/07 20:07:32;;;;;;;;;;;17.90;61.70;;;;;;10335483;28;93475;-72
2022/12/07 20:17:54;;;;;;;;;;;17.80;61.70;;;;;;10336947;28;93672;-72
2022/12/07 20:22:56;;;;;;;;;;;17.80;61.90;;;;;;10333041;28;94349;-71
2022/12/07 20:27:58;;;;;;;;;;;17.80;62.00;;;;;;10335829;28;93452;-72
2022/12/07 20:32:59;;;;;;;;;;;17.90;62.00;;;;;;10332583;28;96861;-71
2022/12/07 20:38:01;;;;;;;;;;;17.90;61.80;;;;;;10334551;28;94437;-72
2022/12/07 20:43:03;;;;;;;;;;;18.00;61.70;;;;;;10335973;28;93001;-71
2022/12/07 20:48:05;;;;;;;;;;;17.90;61.60;;;;;;10334560;28;92496;-71
2022/12/07 20:53:07;;;;;;;;;;;17.80;61.60;;;;;;10332409;28;93479;-72
2022/12/07 20:58:08;;;;;;;;;;;17.80;61.80;;;;;;10333389;28;94385;-72
2022/12/07 21:03:10;;;;;;;;;;;17.60;61.90;;;;;;10333204;28;93432;-71
2022/12/07 21:08:12;;;;;;;;;;;17.50;62.20;;;;;;10334363;28;92682;-72
2022/12/07 21:13:14;;;;;;;;;;;17.40;62.40;;;;;;10299168;28;93777;-72
2022/12/07 21:18:16;;;;;;;;;;;17.20;62.70;;;;;;10333437;28;93498;-71
2022/12/07 21:23:18;;;;;;;;;;;17.10;62.90;;;;;;10330277;28;95674;-71
2022/12/07 21:28:20;;;;;;;;;;;17.00;63.10;;;;;;10333866;28;94392;-72
2022/12/07 21:33:21;;;;;;;;;;;16.90;63.50;;;;;;10333365;28;93477;-72
2022/12/07 21:38:23;;;;;;;;;;;16.80;63.70;;;;;;10331083;28;93433;-71
2022/12/07 21:43:25;;;;;;;;;;;16.70;63.90;;;;;;10332518;28;94242;-72
2022/12/07 21:48:27;;;;;;;;;;;16.60;64.20;;;;;;10332477;28;94971;-71
2022/12/07 21:53:28;;;;;;;;;;;16.50;64.40;;;;;;10330495;28;93247;-70
2022/12/07 21:58:30;;;;;;;;;;;16.50;64.70;;;;;;10331827;28;93534;-70
2022/12/07 22:03:32;;;;;;;;;;;16.40;64.60;;;;;;10330917;28;93311;-70
2022/12/07 22:08:35;;;;;;;;;;;16.40;64.50;;;;;;10331391;28;93479;-71
2022/12/07 22:18:57;;;;;;;;;;;16.30;64.40;;;;;;10331008;28;93448;-70
2022/12/07 22:23:59;;;;;;;;;;;16.20;64.40;;;;;;10330398;28;94471;-70
2022/12/07 22:29:01;;;;;;;;;;;16.10;63.90;;;;;;10330122;28;93535;-70
2022/12/07 22:34:03;;;;;;;;;;;16.10;64.00;;;;;;10329893;28;93011;-70
2022/12/07 22:39:04;;;;;;;;;;;16.10;64.10;;;;;;10329821;28;93342;-70
2022/12/07 22:44:07;;;;;;;;;;;16.00;64.00;;;;;;10332984;28;93412;-69
2022/12/07 22:49:08;;;;;;;;;;;16.00;63.80;;;;;;10337934;28;93930;-70
2022/12/07 22:54:14;;;;;;;;;;;16.00;63.80;;;;;;10337886;28;94472;-70
2022/12/07 22:59:16;;;;;;;;;;;15.90;63.90;;;;;;10336399;28;92643;-70
2022/12/07 23:04:18;;;;;;;;;;;15.80;63.90;;;;;;10333394;28;96804;-70
2022/12/07 23:09:20;;;;;;;;;;;15.80;64.00;;;;;;10335776;28;94367;-70
2022/12/07 23:14:24;;;;;;;;;;;15.80;63.80;;;;;;10335122;28;93415;-71
2022/12/07 23:19:25;;;;;;;;;;;15.80;63.80;;;;;;10335791;28;92645;-71
2022/12/07 23:24:27;;;;;;;;;;;15.70;63.90;;;;;;10336404;28;93749;-71
2022/12/07 23:29:29;;;;;;;;;;;15.70;63.90;;;;;;10336139;28;93104;-71
2022/12/07 23:34:31;;;;;;;;;;;15.70;64.10;;;;;;10336387;28;94049;-71
2022/12/07 23:39:33;;;;;;;;;;;15.70;64.00;;;;;;10336736;28;91826;-71
2022/12/07 23:44:34;;;;;;;;;;;15.70;63.90;;;;;;10335548;28;94543;-71
2022/12/07 23:49:36;;;;;;;;;;;15.80;63.90;;;;;;10335111;28;94709;-71
2022/12/07 23:54:38;;;;;;;;;;;15.70;63.80;;;;;;10334223;28;95935;-71
2022/12/07 23:59:40;;;;;;;;;;;15.70;63.80;;;;;;10336134;28;93925;-71
